Anatoly Samochkin — UALD — position and weather

sailwx.info

Track history (hours):
 
Tides and Currents Weather Stations Pressure Air Temp Water Temp Dewpoint Dewpoint Depression Visibility Wind Speed Wind Dir Waves Ship Positions

Anatoly Samochkin

Last reported at 2018-Jul-23 09:33 UTC. Time now 2018-Jul-23 13:43 UTC.
Position N 45°13' E 036°27'.

; draft 2.6 m.

Type: Tug. MMSI: 273448160.

Date/timePositionNaut miles runAvg speedWind from/ knotsBaromVisibWave heightAir tempDewpointWater temp
2018-Jul-23 09:33N 45°13' E 036°27'0 2.7
2018-Jul-23 09:30N 45°13' E 036°27'5 4.2
2018-Jul-23 08:15N 45°18' E 036°30'2 4.9
2018-Jul-23 07:55N 45°19' E 036°32'2 4.9
2018-Jul-23 07:30N 45°20' E 036°34'2 4.9
2018-Jul-23 07:00N 45°21' E 036°37'2 4.6
2018-Jul-23 06:30N 45°22' E 036°40'3 5.1
2018-Jul-23 06:00N 45°25' E 036°41'3 5.2
2018-Jul-23 05:30N 45°27' E 036°39'1 1.6
2018-Jul-23 04:56N 45°28' E 036°39'0 0.2
2018-Jul-23 04:29N 45°28' E 036°39'0 0.0
2018-Jul-23 03:59N 45°28' E 036°39'0 0.0
2018-Jul-23 03:29N 45°28' E 036°39'0 0.0
2018-Jul-23 02:59N 45°28' E 036°39'0 0.0
2018-Jul-22 23:11N 45°28' E 036°39'0 0.0
2018-Jul-22 22:59N 45°28' E 036°39'0 0.0
2018-Jul-22 22:29N 45°28' E 036°39'0 0.0
2018-Jul-22 21:56N 45°28' E 036°39'0 0.0
2018-Jul-22 21:26N 45°28' E 036°39'0 0.0
2018-Jul-22 20:59N 45°28' E 036°39'0 0.0
2018-Jul-22 19:58N 45°28' E 036°39'0 0.0
2018-Jul-22 18:49N 45°28' E 036°39'0 0.0
2018-Jul-22 18:19N 45°28' E 036°39'0 0.0
2018-Jul-22 17:58N 45°28' E 036°39'0 0.0
2018-Jul-22 17:28N 45°28' E 036°39'0 0.0
2018-Jul-22 16:55N 45°28' E 036°39'0 0.0
2018-Jul-22 16:10N 45°28' E 036°39'0 0.0
2018-Jul-22 15:58N 45°28' E 036°39'0 0.0
2018-Jul-22 14:58N 45°28' E 036°39'0 0.0
2018-Jul-22 14:25N 45°28' E 036°39'0 0.0
2018-Jul-22 13:22N 45°28' E 036°39'0 0.0
2018-Jul-22 12:58N 45°28' E 036°39'0 0.0
2018-Jul-22 12:28N 45°28' E 036°39'0 0.0
2018-Jul-22 11:58N 45°28' E 036°39'0 0.0
2018-Jul-22 11:28N 45°28' E 036°39'0 0.0
2018-Jul-22 10:58N 45°28' E 036°39'0 0.0
2018-Jul-22 10:28N 45°28' E 036°39'0 0.0
2018-Jul-22 09:58N 45°28' E 036°39'0 0.0
2018-Jul-22 09:25N 45°28' E 036°39'0 0.1
2018-Jul-22 08:58N 45°28' E 036°39'0 0.0
2018-Jul-22 08:28N 45°28' E 036°39'0 0.0
2018-Jul-22 07:58N 45°28' E 036°39'0 0.0
2018-Jul-22 07:28N 45°28' E 036°39'0 0.0
2018-Jul-22 06:58N 45°28' E 036°39'0 0.0
2018-Jul-22 06:28N 45°28' E 036°39'0 0.0
2018-Jul-22 05:55N 45°28' E 036°39'0 0.0
2018-Jul-22 05:25N 45°28' E 036°39'0 0.2
2018-Jul-22 05:00N 45°28' E 036°39'1 2.3
2018-Jul-22 04:31N 45°29' E 036°40'2 3.9
2018-Jul-22 04:00N 45°30' E 036°42'  
2018-Jul-15 12:03N 45°30' E 036°46'0 6.8
2018-Jul-15 12:00N 45°30' E 036°45'3 6.3
2018-Jul-15 11:29N 45°27' E 036°43'3 6.2
2018-Jul-15 11:00N 45°24' E 036°41'3 6.2
2018-Jul-15 10:31N 45°22' E 036°39'3 6.5
2018-Jul-15 10:00N 45°20' E 036°35'3 6.8
2018-Jul-15 09:30N 45°19' E 036°31'3 5.8
2018-Jul-15 09:01N 45°16' E 036°29'3 6.0
2018-Jul-15 08:30N 45°13' E 036°29'  
Track history (hours):
 
Tides and Currents Weather Stations Pressure Air Temp Water Temp Dewpoint Dewpoint Depression Visibility Wind Speed Wind Dir Waves Ship Positions

Anatoly Samochkin

Last reported at 2018-Jul-23 09:33 UTC. Time now 2018-Jul-23 13:43 UTC.
Position N 45°13' E 036°27'.

; draft 2.6 m.

Type: Tug. MMSI: 273448160.

Date/timePositionNaut miles runAvg speedWind from/ knotsBaromVisibWave heightAir tempDewpointWater temp
2018-Jul-23 09:33N 45°13' E 036°27'0 2.7
2018-Jul-23 09:30N 45°13' E 036°27'5 4.2
2018-Jul-23 08:15N 45°18' E 036°30'2 4.9
2018-Jul-23 07:55N 45°19' E 036°32'2 4.9
2018-Jul-23 07:30N 45°20' E 036°34'2 4.9
2018-Jul-23 07:00N 45°21' E 036°37'2 4.6
2018-Jul-23 06:30N 45°22' E 036°40'3 5.1
2018-Jul-23 06:00N 45°25' E 036°41'3 5.2
2018-Jul-23 05:30N 45°27' E 036°39'1 1.6
2018-Jul-23 04:56N 45°28' E 036°39'0 0.2
2018-Jul-23 04:29N 45°28' E 036°39'0 0.0
2018-Jul-23 03:59N 45°28' E 036°39'0 0.0
2018-Jul-23 03:29N 45°28' E 036°39'0 0.0
2018-Jul-23 02:59N 45°28' E 036°39'0 0.0
2018-Jul-22 23:11N 45°28' E 036°39'0 0.0
2018-Jul-22 22:59N 45°28' E 036°39'0 0.0
2018-Jul-22 22:29N 45°28' E 036°39'0 0.0
2018-Jul-22 21:56N 45°28' E 036°39'0 0.0
2018-Jul-22 21:26N 45°28' E 036°39'0 0.0
2018-Jul-22 20:59N 45°28' E 036°39'0 0.0
2018-Jul-22 19:58N 45°28' E 036°39'0 0.0
2018-Jul-22 18:49N 45°28' E 036°39'0 0.0
2018-Jul-22 18:19N 45°28' E 036°39'0 0.0
2018-Jul-22 17:58N 45°28' E 036°39'0 0.0
2018-Jul-22 17:28N 45°28' E 036°39'0 0.0
2018-Jul-22 16:55N 45°28' E 036°39'0 0.0
2018-Jul-22 16:10N 45°28' E 036°39'0 0.0
2018-Jul-22 15:58N 45°28' E 036°39'0 0.0
2018-Jul-22 14:58N 45°28' E 036°39'0 0.0
2018-Jul-22 14:25N 45°28' E 036°39'0 0.0
2018-Jul-22 13:22N 45°28' E 036°39'0 0.0
2018-Jul-22 12:58N 45°28' E 036°39'0 0.0
2018-Jul-22 12:28N 45°28' E 036°39'0 0.0
2018-Jul-22 11:58N 45°28' E 036°39'0 0.0
2018-Jul-22 11:28N 45°28' E 036°39'0 0.0
2018-Jul-22 10:58N 45°28' E 036°39'0 0.0
2018-Jul-22 10:28N 45°28' E 036°39'0 0.0
2018-Jul-22 09:58N 45°28' E 036°39'0 0.0
2018-Jul-22 09:25N 45°28' E 036°39'0 0.1
2018-Jul-22 08:58N 45°28' E 036°39'0 0.0
2018-Jul-22 08:28N 45°28' E 036°39'0 0.0
2018-Jul-22 07:58N 45°28' E 036°39'0 0.0
2018-Jul-22 07:28N 45°28' E 036°39'0 0.0
2018-Jul-22 06:58N 45°28' E 036°39'0 0.0
2018-Jul-22 06:28N 45°28' E 036°39'0 0.0
2018-Jul-22 05:55N 45°28' E 036°39'0 0.0
2018-Jul-22 05:25N 45°28' E 036°39'0 0.2
2018-Jul-22 05:00N 45°28' E 036°39'1 2.3
2018-Jul-22 04:31N 45°29' E 036°40'2 3.9
2018-Jul-22 04:00N 45°30' E 036°42'  
2018-Jul-15 12:03N 45°30' E 036°46'0 6.8
2018-Jul-15 12:00N 45°30' E 036°45'3 6.3
2018-Jul-15 11:29N 45°27' E 036°43'3 6.2
2018-Jul-15 11:00N 45°24' E 036°41'3 6.2
2018-Jul-15 10:31N 45°22' E 036°39'3 6.5
2018-Jul-15 10:00N 45°20' E 036°35'3 6.8
2018-Jul-15 09:30N 45°19' E 036°31'3 5.8
2018-Jul-15 09:01N 45°16' E 036°29'3 6.0
2018-Jul-15 08:30N 45°13' E 036°29'  

Dump ship's entire track history